Time;durP1;ratioP1;P1;durP2;ratioP2;P2;SDS_P1;SDS_P2;PMS_P1;PMS_P2;Temp;Humidity;BMP_temperature;BMP_pressure;BME280_temperature;BME280_humidity;BME280_pressure;Samples;Min_cycle;Max_cycle;Signal;HPM_P1;HPM_P2
2021/12/05 00:21:57;;;;;;;0.20;0.20;;;4.20;99.90;;;;;;4974628;28;20175;-73
2021/12/05 00:24:01;;;;;;;0.00;0.00;;;4.20;99.90;;;;;;4971107;28;20191;-73
2021/12/05 00:26:29;;;;;;;0.40;0.40;;;4.20;99.90;;;;;;4973852;28;20172;-73
2021/12/05 00:39:43;;;;;;;4.23;1.20;;;4.20;99.90;;;;;;4976455;28;20754;-73
2021/12/05 01:08:48;;;;;;;0.87;0.43;;;3.80;99.90;;;;;;5002431;28;20213;-73
2021/12/05 01:14:09;;;;;;;0.07;0.03;;;3.80;99.90;;;;;;4973385;28;20199;-73
2021/12/05 01:16:35;;;;;;;0.27;0.27;;;3.90;99.90;;;;;;4955284;28;20187;-73
2021/12/05 01:19:01;;;;;;;14.67;0.87;;;3.90;99.90;;;;;;4972777;28;20211;-73
2021/12/05 01:21:27;;;;;;;0.30;0.30;;;3.90;99.90;;;;;;4973231;28;20176;-73
2021/12/05 01:26:30;;;;;;;1.60;1.60;;;3.80;99.90;;;;;;4972848;28;20653;-72
2021/12/05 01:34:02;;;;;;;0.00;0.00;;;3.60;99.90;;;;;;4975746;28;20190;-73
2021/12/05 01:36:35;;;;;;;4.97;0.77;;;3.60;99.90;;;;;;4991739;28;20183;-72
2021/12/05 02:02:52;;;;;;;1.40;1.23;;;3.60;99.90;;;;;;4972678;28;20272;-73
2021/12/05 02:30:14;;;;;;;0.00;0.00;;;3.60;99.90;;;;;;4992199;28;20325;-72
2021/12/05 02:32:55;;;;;;;0.70;0.70;;;3.40;99.90;;;;;;4992039;28;20188;-72
2021/12/05 02:35:40;;;;;;;11.77;4.60;;;3.40;99.90;;;;;;4991846;28;20618;-72
2021/12/05 02:38:47;;;;;;;0.67;0.67;;;3.30;99.90;;;;;;4991482;28;20237;-72
2021/12/05 02:41:15;;;;;;;0.10;0.10;;;3.30;99.90;;;;;;4990099;28;20314;-72
2021/12/05 02:43:45;;;;;;;0.13;0.13;;;3.30;99.90;;;;;;4992240;28;20596;-72
2021/12/05 02:46:13;;;;;;;1.30;0.63;;;3.20;99.90;;;;;;4971925;28;20201;-72
2021/12/05 02:48:39;;;;;;;0.00;0.00;;;3.20;99.90;;;;;;4954831;28;20642;-73
2021/12/05 02:51:16;;;;;;;0.00;0.00;;;3.20;99.90;;;;;;4972352;28;20541;-72
2021/12/05 02:53:49;;;;;;;0.00;0.00;;;3.20;99.90;;;;;;4974624;28;20193;-72
2021/12/05 02:56:17;;;;;;;0.00;0.00;;;3.20;99.90;;;;;;4958320;28;20544;-72
2021/12/05 02:58:48;;;;;;;0.67;0.57;;;3.20;99.90;;;;;;4975942;28;20214;-72
2021/12/05 03:01:26;;;;;;;0.63;0.63;;;3.20;99.90;;;;;;4976999;28;20217;-72
2021/12/05 03:03:53;;;;;;;0.13;0.13;;;3.10;99.90;;;;;;4976277;28;20195;-73
2021/12/05 03:06:23;;;;;;;0.00;0.00;;;3.00;99.90;;;;;;4974984;28;20189;-72
2021/12/05 03:08:54;;;;;;;4.10;1.43;;;3.00;99.90;;;;;;4975565;28;20225;-72
2021/12/05 03:11:21;;;;;;;0.00;0.00;;;3.00;99.90;;;;;;4974459;28;20194;-72
2021/12/05 03:13:47;;;;;;;0.10;0.10;;;3.10;99.90;;;;;;4975577;28;20205;-73
2021/12/05 03:16:15;;;;;;;0.00;0.00;;;3.10;99.90;;;;;;4975245;28;20256;-72
2021/12/05 03:18:41;;;;;;;0.50;0.50;;;3.20;99.90;;;;;;4975370;28;20213;-72
2021/12/05 03:21:08;;;;;;;1.50;1.40;;;3.10;99.90;;;;;;4975512;28;20196;-72
2021/12/05 03:23:36;;;;;;;0.10;0.10;;;3.10;99.90;;;;;;4975591;28;20654;-72
2021/12/05 03:26:05;;;;;;;0.00;0.00;;;3.10;99.90;;;;;;4975306;28;20178;-72
2021/12/05 03:28:31;;;;;;;0.53;0.53;;;3.10;99.90;;;;;;4975066;28;20212;-72
2021/12/05 03:30:57;;;;;;;3.40;1.70;;;3.00;99.90;;;;;;4975083;28;20186;-73
2021/12/05 03:33:22;;;;;;;0.27;0.27;;;2.90;99.90;;;;;;4975194;28;20198;-72
2021/12/05 03:35:48;;;;;;;0.20;0.20;;;2.90;99.90;;;;;;4985737;28;20260;-71
2021/12/05 03:38:14;;;;;;;0.00;0.00;;;2.80;99.90;;;;;;4994469;28;20204;-73
2021/12/05 03:40:40;;;;;;;0.43;0.43;;;2.70;99.90;;;;;;4994392;28;20201;-72
2021/12/05 03:43:09;;;;;;;0.00;0.00;;;2.70;99.90;;;;;;4999070;28;20184;-72
2021/12/05 03:45:41;;;;;;;0.00;0.00;;;2.70;99.90;;;;;;4957770;28;20563;-72
2021/12/05 03:48:08;;;;;;;0.10;0.10;;;2.90;99.90;;;;;;4974828;28;20621;-72
2021/12/05 03:50:36;;;;;;;0.10;0.10;;;2.90;99.90;;;;;;4957564;28;20187;-71
2021/12/05 03:53:04;;;;;;;0.20;0.20;;;2.90;99.90;;;;;;4957385;28;20276;-72
2021/12/05 03:55:30;;;;;;;0.00;0.00;;;3.00;99.90;;;;;;4974889;28;20189;-72
2021/12/05 03:57:56;;;;;;;0.00;0.00;;;2.90;99.90;;;;;;4974553;28;20216;-72
2021/12/05 04:00:26;;;;;;;0.10;0.10;;;3.00;99.90;;;;;;4974681;28;20214;-72
2021/12/05 04:02:56;;;;;;;8.60;0.87;;;2.90;99.90;;;;;;4974756;28;20229;-72
2021/12/05 04:05:23;;;;;;;0.10;0.10;;;2.90;99.90;;;;;;4973607;28;20187;-72
2021/12/05 04:07:49;;;;;;;0.00;0.00;;;2.80;99.90;;;;;;4973738;28;20225;-73
2021/12/05 04:10:15;;;;;;;0.10;0.10;;;2.60;99.90;;;;;;4974290;28;20188;-72
2021/12/05 04:12:41;;;;;;;0.73;0.73;;;2.60;99.90;;;;;;4974475;28;20263;-72
2021/12/05 04:15:10;;;;;;;0.27;0.27;;;2.60;99.90;;;;;;4974634;28;20191;-72
2021/12/05 04:17:36;;;;;;;0.30;0.20;;;2.50;99.90;;;;;;4974150;28;20202;-71
2021/12/05 04:20:02;;;;;;;0.20;0.20;;;2.50;99.90;;;;;;4974342;28;20207;-72
2021/12/05 04:22:28;;;;;;;0.13;0.07;;;2.40;99.90;;;;;;4974310;28;20211;-72
2021/12/05 04:24:54;;;;;;;0.00;0.00;;;2.30;99.90;;;;;;4972984;28;20651;-72
2021/12/05 04:27:19;;;;;;;2.00;0.93;;;2.20;99.90;;;;;;4973773;28;20220;-72
2021/12/05 04:29:45;;;;;;;0.03;0.03;;;2.10;99.90;;;;;;4974208;28;20183;-73
2021/12/05 04:32:10;;;;;;;0.50;0.50;;;2.00;99.90;;;;;;4973910;28;20200;-72
2021/12/05 04:34:36;;;;;;;0.00;0.00;;;1.90;99.90;;;;;;4975135;28;20767;-72
2021/12/05 04:37:02;;;;;;;0.20;0.20;;;1.80;99.90;;;;;;4993178;28;20586;-72
2021/12/05 04:39:29;;;;;;;0.00;0.00;;;1.80;99.90;;;;;;4994267;28;20219;-72
2021/12/05 04:41:55;;;;;;;0.63;0.63;;;1.70;99.90;;;;;;4994373;28;20591;-72
2021/12/05 04:44:22;;;;;;;0.80;0.80;;;1.70;99.90;;;;;;4968366;28;20189;-72
2021/12/05 04:46:48;;;;;;;0.10;0.10;;;1.70;99.90;;;;;;4973933;28;20221;-72
2021/12/05 04:49:14;;;;;;;0.00;0.00;;;1.60;99.90;;;;;;4973683;28;20181;-72
2021/12/05 04:51:43;;;;;;;0.00;0.00;;;1.60;99.90;;;;;;4974000;28;20193;-72
2021/12/05 04:54:12;;;;;;;0.00;0.00;;;1.50;99.90;;;;;;4956343;28;20586;-72
2021/12/05 04:56:39;;;;;;;0.10;0.10;;;1.50;99.90;;;;;;4973804;28;20267;-72
2021/12/05 04:59:12;;;;;;;0.00;0.00;;;1.50;99.90;;;;;;4973550;28;20197;-73
2021/12/05 05:01:38;;;;;;;0.00;0.00;;;1.50;99.90;;;;;;4956370;28;20185;-72
2021/12/05 05:04:09;;;;;;;0.00;0.00;;;1.60;99.90;;;;;;4973977;28;20189;-72
2021/12/05 05:06:35;;;;;;;0.00;0.00;;;1.70;99.90;;;;;;4972743;28;20230;-72
2021/12/05 05:09:01;;;;;;;0.00;0.00;;;1.70;99.90;;;;;;4973361;28;20184;-73
2021/12/05 05:11:27;;;;;;;0.00;0.00;;;1.70;99.90;;;;;;4973541;28;20173;-73
2021/12/05 05:13:54;;;;;;;0.00;0.00;;;1.70;99.90;;;;;;4973388;28;20180;-72
2021/12/05 05:16:22;;;;;;;0.70;0.70;;;1.80;99.90;;;;;;4972848;28;20195;-72
2021/12/05 05:18:52;;;;;;;0.97;0.97;;;1.90;99.90;;;;;;4973115;28;20259;-72
2021/12/05 05:21:36;;;;;;;0.20;0.20;;;1.90;99.90;;;;;;4973393;28;20179;-72
2021/12/05 05:40:11;;;;;;;0.30;0.20;;;1.80;99.90;;;;;;4973222;28;20255;-72
2021/12/05 05:43:10;;;;;;;0.00;0.00;;;1.70;99.90;;;;;;4990134;28;20225;-72
2021/12/05 05:50:57;;;;;;;0.37;0.37;;;1.70;99.90;;;;;;4972832;28;20215;-72
2021/12/05 05:53:22;;;;;;;0.10;0.10;;;1.70;99.90;;;;;;4972776;28;20191;-72
2021/12/05 05:55:49;;;;;;;2.37;1.07;;;1.70;99.90;;;;;;4972402;28;20262;-71
2021/12/05 05:58:16;;;;;;;0.50;0.50;;;1.70;99.90;;;;;;4973139;28;20192;-72
2021/12/05 06:00:59;;;;;;;0.20;0.20;;;1.70;99.90;;;;;;4975136;28;20248;-72
2021/12/05 06:03:25;;;;;;;0.10;0.10;;;1.70;99.90;;;;;;4972523;28;20211;-72
2021/12/05 06:06:04;;;;;;;0.00;0.00;;;1.60;99.90;;;;;;4971939;28;20234;-73
2021/12/05 06:08:32;;;;;;;0.00;0.00;;;1.50;99.90;;;;;;4973338;28;20223;-73
2021/12/05 06:11:01;;;;;;;0.10;0.10;;;1.40;99.90;;;;;;4972454;28;20172;-72
2021/12/05 06:13:28;;;;;;;0.00;0.00;;;1.30;99.90;;;;;;4972951;28;20675;-73
2021/12/05 06:15:54;;;;;;;0.00;0.00;;;1.20;99.90;;;;;;4972129;28;20286;-72
2021/12/05 06:18:20;;;;;;;1.17;1.10;;;1.00;99.90;;;;;;4972154;28;20204;-72
2021/12/05 06:20:46;;;;;;;0.63;0.63;;;0.90;99.90;;;;;;4954885;28;20247;-72
2021/12/05 06:23:13;;;;;;;0.50;0.50;;;0.80;99.90;;;;;;4972484;28;20604;-73
2021/12/05 06:25:41;;;;;;;0.33;0.33;;;0.70;99.90;;;;;;4972304;28;20210;-72
2021/12/05 06:28:14;;;;;;;0.03;0.03;;;0.70;99.90;;;;;;4975361;28;20206;-72
2021/12/05 06:41:59;;;;;;;0.00;0.00;;;0.60;99.90;;;;;;5000331;28;20273;-72
2021/12/05 06:47:12;;;;;;;0.07;0.07;;;0.40;99.90;;;;;;4978584;28;20214;-72
2021/12/05 06:49:39;;;;;;;0.10;0.10;;;0.30;99.90;;;;;;4978553;28;20197;-73
2021/12/05 06:52:07;;;;;;;1.30;1.30;;;0.20;99.90;;;;;;4978576;28;20175;-71
2021/12/05 06:54:33;;;;;;;0.00;0.00;;;0.20;99.90;;;;;;4978283;28;20187;-72
2021/12/05 06:56:58;;;;;;;0.00;0.00;;;0.30;99.90;;;;;;4978236;28;20314;-72
2021/12/05 06:59:24;;;;;;;0.00;0.00;;;0.20;99.90;;;;;;4976852;28;20558;-72
2021/12/05 07:01:49;;;;;;;0.93;0.93;;;0.20;99.90;;;;;;4977299;28;20608;-72
2021/12/05 07:07:01;;;;;;;0.00;0.00;;;0.40;99.90;;;;;;4977728;28;20223;-72
2021/12/05 07:09:27;;;;;;;0.60;0.60;;;0.40;99.90;;;;;;4977008;28;20195;-72
2021/12/05 07:12:33;;;;;;;0.10;0.10;;;0.50;99.90;;;;;;4978438;28;20196;-72
2021/12/05 07:14:50;;;;;;;0.50;0.50;;;0.60;99.90;;;;;;4978172;28;20190;-72
2021/12/05 07:20:21;;;;;;;0.53;0.53;;;0.60;99.90;;;;;;4978222;28;20568;-73
2021/12/05 07:25:43;;;;;;;0.10;0.10;;;0.80;99.90;;;;;;4978378;28;20176;-72
2021/12/05 07:41:54;;;;;;;0.00;0.00;;;1.20;99.90;;;;;;4996719;28;20277;-73
2021/12/05 07:44:20;;;;;;;0.80;0.80;;;1.30;99.90;;;;;;4986599;28;20186;-72
2021/12/05 07:46:47;;;;;;;0.10;0.10;;;1.40;99.90;;;;;;4974654;28;20183;-72
2021/12/05 07:49:14;;;;;;;0.00;0.00;;;1.60;99.90;;;;;;4974797;28;20180;-72
2021/12/05 07:51:44;;;;;;;0.20;0.20;;;1.70;99.90;;;;;;4975051;28;20250;-72
2021/12/05 07:54:33;;;;;;;1.07;1.00;;;1.80;99.90;;;;;;4957637;28;20617;-72
2021/12/05 07:57:17;;;;;;;0.30;0.30;;;1.90;99.90;;;;;;4974592;28;20208;-71
2021/12/05 08:00:03;;;;;;;0.20;0.20;;;1.90;99.90;;;;;;4974728;28;20207;-72
2021/12/05 08:16:14;;;;;;;1.33;1.33;;;2.40;99.90;;;;;;4974434;28;20570;-72
2021/12/05 08:18:39;;;;;;;0.00;0.00;;;2.40;99.90;;;;;;4974252;28;20196;-72
2021/12/05 08:21:07;;;;;;;0.20;0.20;;;2.60;99.90;;;;;;4974434;28;20256;-72
2021/12/05 08:23:33;;;;;;;0.00;0.00;;;2.60;99.90;;;;;;4974447;28;20198;-72
2021/12/05 08:26:07;;;;;;;1.23;1.13;;;2.60;99.90;;;;;;4974142;28;20228;-73
2021/12/05 08:41:52;;;;;;;0.10;0.10;;;2.80;99.90;;;;;;4994252;28;20180;-72
2021/12/05 09:25:43;;;;;;;0.13;0.13;;;3.80;99.90;;;;;;4992826;28;20658;-72
2021/12/05 09:53:09;;;;;;;0.00;0.00;;;4.10;99.90;;;;;;4973117;28;20307;-72
2021/12/05 10:11:23;;;;;;;0.00;0.00;;;4.50;99.90;;;;;;4972571;28;20530;-72
2021/12/05 10:16:32;;;;;;;0.97;0.97;;;4.70;99.90;;;;;;4972044;28;20184;-72
2021/12/05 10:35:40;;;;;;;0.43;0.43;;;5.10;99.90;;;;;;4978107;28;20190;-72
2021/12/05 10:38:13;;;;;;;0.67;0.67;;;5.20;99.90;;;;;;4991337;28;20222;-72
2021/12/05 10:41:03;;;;;;;0.10;0.10;;;5.20;99.90;;;;;;4991522;28;20745;-72
2021/12/05 10:43:30;;;;;;;0.20;0.20;;;5.30;99.90;;;;;;4976153;28;20601;-72
2021/12/05 10:46:07;;;;;;;0.00;0.00;;;5.40;99.90;;;;;;4972812;28;20183;-72
2021/12/05 10:48:40;;;;;;;0.00;0.00;;;5.50;99.90;;;;;;4975050;28;20198;-72
2021/12/05 10:51:09;;;;;;;1.03;1.03;;;5.60;99.90;;;;;;4991649;28;20260;-71
2021/12/05 10:53:53;;;;;;;0.00;0.00;;;5.60;99.90;;;;;;4992926;28;20676;-71
2021/12/05 10:56:23;;;;;;;0.00;0.00;;;5.60;99.90;;;;;;4992128;28;20549;-72
2021/12/05 10:59:09;;;;;;;0.10;0.10;;;5.60;99.90;;;;;;4974408;28;20297;-72
2021/12/05 11:01:43;;;;;;;9.50;1.20;;;5.70;99.90;;;;;;4983451;28;20180;-72
2021/12/05 11:04:11;;;;;;;0.00;0.00;;;5.70;99.90;;;;;;4973012;28;20266;-72
2021/12/05 11:06:59;;;;;;;0.00;0.00;;;5.70;99.90;;;;;;4970895;28;20183;-72
2021/12/05 11:09:27;;;;;;;0.10;0.10;;;5.70;99.90;;;;;;4972103;28;20214;-72
2021/12/05 11:11:58;;;;;;;0.00;0.00;;;5.70;99.90;;;;;;4971848;28;20215;-72
2021/12/05 11:14:29;;;;;;;0.10;0.10;;;5.70;99.90;;;;;;4973414;28;20180;-72
2021/12/05 11:16:57;;;;;;;0.00;0.00;;;5.70;99.90;;;;;;4975309;28;20235;-74
2021/12/05 11:19:26;;;;;;;0.23;0.23;;;5.70;99.90;;;;;;4975346;28;20709;-72
2021/12/05 11:22:18;;;;;;;0.20;0.20;;;5.80;99.90;;;;;;4975216;28;20211;-72
2021/12/05 11:24:54;;;;;;;0.10;0.10;;;5.80;99.90;;;;;;4974878;28;20188;-73
2021/12/05 11:27:32;;;;;;;0.00;0.00;;;5.90;99.90;;;;;;4974938;28;20199;-72
2021/12/05 11:30:13;;;;;;;0.00;0.00;;;5.90;99.90;;;;;;4975374;28;20316;-72
2021/12/05 11:32:41;;;;;;;0.00;0.00;;;6.10;99.90;;;;;;4975437;28;20561;-72
2021/12/05 11:35:09;;;;;;;0.10;0.10;;;6.20;99.90;;;;;;4979993;28;20179;-72
2021/12/05 11:38:10;;;;;;;0.00;0.00;;;6.30;99.90;;;;;;4982891;28;20212;-73
2021/12/05 11:40:41;;;;;;;0.00;0.00;;;6.40;99.90;;;;;;4933599;28;20265;-73
2021/12/05 11:43:08;;;;;;;0.20;0.20;;;6.50;99.90;;;;;;4993032;28;20203;-72
2021/12/05 11:46:12;;;;;;;0.10;0.10;;;6.40;99.90;;;;;;4975934;28;20183;-73
2021/12/05 11:48:48;;;;;;;0.10;0.10;;;6.40;99.90;;;;;;4964894;28;20306;-73
2021/12/05 11:51:17;;;;;;;0.77;0.77;;;6.30;99.90;;;;;;4975958;28;20183;-72
2021/12/05 11:53:50;;;;;;;0.10;0.10;;;6.30;99.90;;;;;;4976575;28;20595;-73
2021/12/05 11:56:34;;;;;;;0.50;0.50;;;6.40;99.90;;;;;;4974679;28;20222;-73
2021/12/05 11:59:21;;;;;;;0.10;0.10;;;6.30;99.90;;;;;;4974864;28;20271;-73
2021/12/05 12:01:59;;;;;;;0.00;0.00;;;6.40;99.90;;;;;;4975944;28;20644;-72
2021/12/05 12:04:47;;;;;;;0.77;0.63;;;6.50;99.90;;;;;;4974837;28;20723;-72
2021/12/05 12:09:41;;;;;;;0.00;0.00;;;6.50;99.90;;;;;;5030524;28;20736;-70
2021/12/05 12:12:07;;;;;;;0.50;0.50;;;6.60;99.90;;;;;;5034256;28;20202;-69
2021/12/05 12:14:32;;;;;;;0.00;0.00;;;6.70;99.90;;;;;;5034233;28;20173;-69
2021/12/05 12:16:59;;;;;;;0.00;0.00;;;6.80;99.90;;;;;;5037332;28;20200;-69
2021/12/05 12:19:24;;;;;;;0.00;0.00;;;7.00;99.90;;;;;;5039059;28;20213;-69
2021/12/05 12:21:56;;;;;;;0.00;0.00;;;7.30;99.90;;;;;;5033699;28;20173;-69
2021/12/05 12:24:22;;;;;;;0.00;0.00;;;7.90;99.90;;;;;;5015216;28;20236;-69
2021/12/05 12:26:48;;;;;;;0.00;0.00;;;8.00;99.90;;;;;;5032190;28;20181;-69
2021/12/05 12:29:14;;;;;;;0.57;0.50;;;7.60;99.90;;;;;;5033054;28;20216;-69
2021/12/05 12:31:44;;;;;;;0.00;0.00;;;7.30;99.90;;;;;;5032563;28;20181;-69
2021/12/05 12:34:14;;;;;;;0.00;0.00;;;7.20;99.90;;;;;;5031463;28;20227;-69
2021/12/05 12:37:01;;;;;;;0.00;0.00;;;7.00;99.90;;;;;;5032769;28;20728;-69
2021/12/05 12:39:32;;;;;;;0.00;0.00;;;;;;;;;;5032582;28;20288;-69
2021/12/05 12:42:03;;;;;;;0.20;0.20;;;6.50;99.90;;;;;;5032758;28;20174;-70
2021/12/05 12:44:29;;;;;;;0.00;0.00;;;6.30;99.90;;;;;;5017642;28;20778;-68
2021/12/05 12:46:57;;;;;;;0.13;0.13;;;6.30;99.90;;;;;;5003425;28;20177;-69
2021/12/05 12:49:43;;;;;;;0.30;0.30;;;6.20;99.90;;;;;;5016865;28;20210;-69
2021/12/05 12:52:17;;;;;;;0.20;0.20;;;6.20;99.90;;;;;;5013070;28;20190;-69
2021/12/05 12:54:55;;;;;;;0.00;0.00;;;6.20;99.90;;;;;;5013117;28;20179;-69
2021/12/05 12:57:24;;;;;;;0.53;0.53;;;6.30;99.90;;;;;;5012305;28;20201;-68
2021/12/05 13:00:10;;;;;;;0.10;0.10;;;6.30;99.90;;;;;;5012444;28;20213;-69
2021/12/05 13:11:04;;;;;;;0.00;0.00;;;6.40;99.90;;;;;;5032634;28;20189;-69
2021/12/05 13:13:32;;;;;;;1.17;1.03;;;6.50;99.90;;;;;;5032345;28;20216;-69
2021/12/05 13:16:08;;;;;;;0.10;0.10;;;6.60;99.90;;;;;;5033029;28;20727;-69
2021/12/05 13:18:40;;;;;;;0.10;0.10;;;6.60;99.90;;;;;;5032103;28;20208;-69
2021/12/05 13:21:29;;;;;;;0.00;0.00;;;6.60;99.90;;;;;;5032395;28;20210;-69
2021/12/05 13:23:55;;;;;;;0.20;0.20;;;6.60;99.90;;;;;;5032046;28;20170;-69
2021/12/05 13:26:35;;;;;;;0.30;0.30;;;6.50;99.90;;;;;;5031797;28;20182;-68
2021/12/05 13:29:17;;;;;;;0.10;0.10;;;6.50;99.90;;;;;;5031656;28;20189;-69
2021/12/05 13:32:05;;;;;;;0.00;0.00;;;6.40;99.90;;;;;;5031295;28;20551;-69
2021/12/05 13:34:34;;;;;;;0.70;0.63;;;6.50;99.90;;;;;;5023280;28;20672;-69
2021/12/05 13:37:31;;;;;;;0.10;0.10;;;6.50;99.90;;;;;;5031471;28;20173;-69
2021/12/05 13:40:25;;;;;;;0.00;0.00;;;6.50;99.90;;;;;;5031632;28;20194;-69
2021/12/05 13:42:51;;;;;;;0.10;0.10;;;6.50;99.90;;;;;;5019176;28;20181;-69
2021/12/05 13:45:27;;;;;;;0.00;0.00;;;6.40;99.90;;;;;;5012270;28;20205;-68
2021/12/05 13:47:58;;;;;;;0.00;0.00;;;6.50;99.90;;;;;;5011731;28;20194;-69
2021/12/05 13:50:29;;;;;;;7.73;0.73;;;6.40;99.90;;;;;;5011876;28;20174;-69
2021/12/05 13:53:03;;;;;;;0.10;0.10;;;6.40;99.90;;;;;;5011914;28;20190;-69
2021/12/05 13:56:02;;;;;;;0.00;0.00;;;6.40;99.90;;;;;;5011782;28;20221;-69
2021/12/05 13:58:45;;;;;;;0.10;0.10;;;6.50;99.90;;;;;;5021974;28;20194;-69
2021/12/05 14:01:31;;;;;;;0.03;0.03;;;6.50;99.90;;;;;;5031366;28;20576;-69
2021/12/05 14:04:10;;;;;;;0.47;0.33;;;6.70;99.90;;;;;;5031485;28;20178;-69
2021/12/05 14:06:53;;;;;;;0.20;0.20;;;7.00;99.90;;;;;;5030552;28;20177;-69
2021/12/05 14:09:34;;;;;;;0.23;0.23;;;7.40;99.90;;;;;;5030967;28;20209;-69
2021/12/05 14:12:13;;;;;;;0.10;0.10;;;7.40;99.90;;;;;;5031323;28;20177;-69
2021/12/05 14:14:49;;;;;;;0.00;0.00;;;7.30;99.90;;;;;;5031217;28;20181;-69
2021/12/05 14:17:19;;;;;;;0.10;0.10;;;7.20;99.90;;;;;;5013099;28;20710;-69
2021/12/05 14:19:49;;;;;;;0.10;0.10;;;7.10;99.90;;;;;;5031036;28;20302;-69
2021/12/05 14:22:16;;;;;;;0.10;0.10;;;7.00;99.90;;;;;;5031114;28;20225;-69
2021/12/05 14:24:45;;;;;;;0.10;0.10;;;6.90;99.90;;;;;;5030891;28;20173;-69
2021/12/05 14:27:16;;;;;;;2.00;0.60;;;6.80;99.90;;;;;;5031090;28;20179;-69
2021/12/05 14:29:44;;;;;;;0.77;0.37;;;6.70;99.90;;;;;;5030961;28;20323;-69
2021/12/05 14:32:18;;;;;;;0.03;0.03;;;6.60;99.90;;;;;;5030716;28;20178;-69
2021/12/05 14:34:44;;;;;;;0.10;0.10;;;6.60;99.90;;;;;;5031021;28;20176;-69
2021/12/05 14:37:11;;;;;;;0.17;0.17;;;6.50;99.90;;;;;;5030868;28;20177;-69
2021/12/05 14:39:40;;;;;;;0.87;0.83;;;6.50;99.90;;;;;;5030705;28;20194;-69
2021/12/05 14:42:09;;;;;;;0.20;0.20;;;6.50;99.90;;;;;;5030972;28;20181;-71
2021/12/05 14:44:37;;;;;;;0.00;0.00;;;6.40;99.90;;;;;;5014817;28;20640;-69
2021/12/05 14:47:09;;;;;;;0.10;0.10;;;6.40;99.90;;;;;;5010977;28;20174;-69
2021/12/05 14:49:39;;;;;;;27.60;0.73;;;6.40;99.90;;;;;;5012929;28;20563;-69
2021/12/05 14:52:09;;;;;;;0.00;0.00;;;6.40;99.90;;;;;;5023969;28;20182;-69
2021/12/05 14:54:37;;;;;;;0.20;0.20;;;6.40;99.90;;;;;;5015066;28;20190;-69
2021/12/05 14:57:15;;;;;;;1.27;1.23;;;6.40;99.90;;;;;;5014790;28;20709;-69
2021/12/05 14:59:43;;;;;;;4.13;1.97;;;6.30;99.90;;;;;;5014919;28;20202;-69
2021/12/05 15:02:10;;;;;;;0.10;0.10;;;6.30;99.90;;;;;;5015118;28;20175;-68
2021/12/05 15:04:39;;;;;;;1.20;0.77;;;6.20;99.90;;;;;;5014969;28;20201;-69
2021/12/05 15:07:05;;;;;;;0.30;0.30;;;6.20;99.90;;;;;;5013991;28;20177;-69
2021/12/05 15:09:36;;;;;;;0.20;0.20;;;6.10;99.90;;;;;;5014739;28;20297;-69
2021/12/05 15:12:16;;;;;;;0.10;0.10;;;6.20;99.90;;;;;;5014794;28;20288;-69
2021/12/05 15:14:43;;;;;;;0.00;0.00;;;6.10;99.90;;;;;;5014829;28;20313;-69
2021/12/05 15:17:36;;;;;;;0.53;0.53;;;6.10;99.90;;;;;;5014610;28;20225;-69
2021/12/05 15:20:11;;;;;;;0.10;0.10;;;6.10;99.90;;;;;;5014428;28;20668;-69
2021/12/05 15:22:37;;;;;;;0.57;0.57;;;6.10;99.90;;;;;;5014547;28;20221;-69
2021/12/05 15:25:08;;;;;;;0.03;0.03;;;6.10;99.90;;;;;;5014711;28;20206;-69
2021/12/05 15:27:35;;;;;;;0.10;0.10;;;6.10;99.90;;;;;;5014121;28;20248;-69
2021/12/05 15:30:03;;;;;;;0.20;0.20;;;6.10;99.90;;;;;;5014301;28;20182;-69
2021/12/05 15:32:30;;;;;;;0.87;0.87;;;6.00;99.90;;;;;;5014157;28;20182;-69
2021/12/05 15:35:00;;;;;;;0.00;0.00;;;6.00;99.90;;;;;;5017985;28;20563;-69
2021/12/05 15:37:25;;;;;;;0.10;0.10;;;6.00;99.90;;;;;;5033975;28;20273;-69
2021/12/05 15:39:55;;;;;;;0.07;0.07;;;6.00;99.90;;;;;;5033881;28;20272;-69
2021/12/05 15:42:27;;;;;;;1.07;1.07;;;5.90;99.90;;;;;;5019163;28;20181;-69
2021/12/05 15:44:56;;;;;;;0.17;0.17;;;5.90;99.90;;;;;;5016108;28;20205;-69
2021/12/05 15:47:34;;;;;;;0.10;0.10;;;5.90;99.90;;;;;;5021571;28;20265;-69
2021/12/05 15:50:11;;;;;;;0.50;0.50;;;5.80;99.90;;;;;;5021342;28;20220;-69
2021/12/05 15:52:42;;;;;;;13.67;1.23;;;5.80;99.90;;;;;;5034002;28;20185;-69
2021/12/05 15:55:17;;;;;;;0.23;0.23;;;5.80;99.90;;;;;;5033829;28;20181;-69
2021/12/05 15:57:47;;;;;;;0.27;0.27;;;5.70;99.90;;;;;;5033311;28;20543;-69
2021/12/05 16:00:16;;;;;;;1.37;0.67;;;5.70;99.90;;;;;;5032321;28;20201;-69
2021/12/05 16:02:46;;;;;;;0.00;0.00;;;5.70;99.90;;;;;;5033740;28;20166;-69
2021/12/05 16:05:15;;;;;;;0.30;0.30;;;5.70;99.90;;;;;;5033757;28;20668;-69
2021/12/05 16:07:41;;;;;;;0.17;0.17;;;5.70;99.90;;;;;;5014557;28;20221;-69
2021/12/05 16:10:34;;;;;;;0.20;0.20;;;5.70;99.90;;;;;;5033578;28;20235;-69
2021/12/05 16:13:28;;;;;;;3.13;1.37;;;5.70;99.90;;;;;;5030977;28;20288;-69
2021/12/05 16:15:55;;;;;;;0.83;0.80;;;5.60;99.90;;;;;;5033116;28;20204;-69
2021/12/05 16:18:32;;;;;;;1.03;0.47;;;5.60;99.90;;;;;;5033108;28;20198;-69
2021/12/05 16:21:02;;;;;;;1.33;0.83;;;5.50;99.90;;;;;;5033327;28;20198;-69
2021/12/05 16:23:34;;;;;;;1.40;0.30;;;5.50;99.90;;;;;;5033437;28;20195;-69
2021/12/05 16:26:02;;;;;;;0.10;0.10;;;5.50;99.90;;;;;;5032921;28;20265;-69
2021/12/05 16:28:45;;;;;;;0.10;0.10;;;5.50;99.90;;;;;;5032999;28;20578;-69
2021/12/05 16:31:22;;;;;;;0.60;0.60;;;5.50;99.90;;;;;;5032971;28;20197;-69
2021/12/05 16:34:14;;;;;;;0.10;0.10;;;5.50;99.90;;;;;;5033213;28;20194;-69
2021/12/05 16:36:45;;;;;;;0.20;0.20;;;5.40;99.90;;;;;;5032613;28;20331;-69
2021/12/05 16:39:20;;;;;;;0.30;0.30;;;5.30;99.90;;;;;;5015094;28;20582;-69
2021/12/05 16:41:50;;;;;;;0.10;0.10;;;5.30;99.90;;;;;;5032694;28;20192;-69
2021/12/05 16:44:20;;;;;;;0.73;0.73;;;5.20;99.90;;;;;;5020307;28;20174;-69
2021/12/05 16:46:52;;;;;;;2.07;1.97;;;5.10;99.90;;;;;;4995091;28;20670;-69
2021/12/05 16:49:21;;;;;;;4.90;1.53;;;5.10;99.90;;;;;;5027345;28;20206;-71
2021/12/05 16:51:54;;;;;;;1.30;1.20;;;5.00;99.90;;;;;;5032700;28;20270;-69
2021/12/05 16:54:24;;;;;;;1.43;1.33;;;5.00;99.90;;;;;;5014771;28;20186;-69
2021/12/05 16:56:55;;;;;;;0.80;0.80;;;5.00;99.90;;;;;;5032309;28;20186;-69
2021/12/05 16:59:38;;;;;;;2.97;2.00;;;5.00;99.90;;;;;;5032165;28;20213;-69
2021/12/05 17:02:27;;;;;;;0.20;0.20;;;4.90;99.90;;;;;;5032500;28;20256;-69
2021/12/05 17:05:02;;;;;;;0.70;0.50;;;5.00;99.90;;;;;;5032633;28;20643;-69
2021/12/05 17:07:49;;;;;;;0.43;0.43;;;4.90;99.90;;;;;;5031415;28;20185;-69
2021/12/05 17:10:21;;;;;;;0.33;0.33;;;4.90;99.90;;;;;;5014463;28;20273;-69
2021/12/05 17:13:14;;;;;;;0.10;0.10;;;4.90;99.90;;;;;;5031955;28;20186;-69
2021/12/05 17:16:01;;;;;;;0.60;0.60;;;4.90;99.90;;;;;;5032319;28;20261;-69
2021/12/05 17:18:35;;;;;;;0.87;0.67;;;4.90;99.90;;;;;;5032310;28;20209;-69
2021/12/05 17:21:09;;;;;;;1.60;1.50;;;4.90;99.90;;;;;;5032196;28;20224;-69
2021/12/05 17:23:45;;;;;;;0.20;0.20;;;4.90;99.90;;;;;;5032044;28;20265;-69
2021/12/05 17:26:16;;;;;;;0.30;0.30;;;4.90;99.90;;;;;;5031977;28;20174;-69
2021/12/05 17:28:55;;;;;;;3.13;2.93;;;4.90;99.90;;;;;;5031926;28;20235;-69
2021/12/05 17:31:29;;;;;;;3.43;2.33;;;4.90;99.90;;;;;;5014271;28;20182;-69
2021/12/05 17:33:58;;;;;;;0.73;0.73;;;4.90;99.90;;;;;;5032140;28;20193;-69
2021/12/05 17:36:40;;;;;;;0.20;0.20;;;4.90;99.90;;;;;;5013909;28;20240;-69
2021/12/05 17:39:08;;;;;;;0.83;0.83;;;4.90;99.90;;;;;;5031873;28;20209;-70
2021/12/05 17:41:34;;;;;;;0.57;0.57;;;4.90;99.90;;;;;;5031868;28;20220;-69
2021/12/05 17:44:03;;;;;;;0.10;0.10;;;4.90;99.90;;;;;;5012099;28;20537;-69
2021/12/05 17:46:32;;;;;;;0.00;0.00;;;4.90;99.90;;;;;;5012343;28;20232;-70
2021/12/05 17:48:58;;;;;;;0.93;0.77;;;4.90;99.90;;;;;;5011586;28;20210;-70
2021/12/05 17:51:32;;;;;;;4.23;1.27;;;4.90;99.90;;;;;;5013997;28;20733;-70
2021/12/05 17:53:58;;;;;;;0.60;0.60;;;4.90;99.90;;;;;;5013909;28;20646;-70
2021/12/05 17:56:37;;;;;;;1.87;1.13;;;4.90;99.90;;;;;;4994008;28;20182;-70
2021/12/05 17:59:12;;;;;;;0.10;0.10;;;4.90;99.90;;;;;;5026496;28;20586;-70
2021/12/05 18:04:24;;;;;;;0.30;0.30;;;4.90;99.90;;;;;;5031884;28;20709;-70
2021/12/05 18:06:49;;;;;;;1.17;1.13;;;4.90;99.90;;;;;;5030828;28;20181;-70
2021/12/05 18:09:15;;;;;;;0.10;0.10;;;5.00;99.90;;;;;;5071167;22;20227;-69
2021/12/05 18:11:41;;;;;;;0.40;0.40;;;5.00;99.90;;;;;;5018650;28;20194;-70
2021/12/05 18:14:07;;;;;;;2.23;0.40;;;5.00;99.90;;;;;;5011496;28;20190;-70
2021/12/05 18:16:34;;;;;;;1.00;0.27;;;5.00;99.90;;;;;;5011322;28;20646;-70
2021/12/05 18:19:04;;;;;;;0.50;0.50;;;5.00;99.90;;;;;;5007679;28;20174;-69
2021/12/05 18:21:32;;;;;;;0.20;0.20;;;4.90;99.90;;;;;;4974452;28;20265;-70
2021/12/05 18:23:58;;;;;;;1.60;1.27;;;4.90;99.90;;;;;;4991383;28;20568;-70
2021/12/05 18:26:25;;;;;;;0.17;0.17;;;4.90;99.90;;;;;;4991561;28;20183;-71
2021/12/05 18:28:51;;;;;;;0.40;0.40;;;4.80;99.90;;;;;;4991812;28;20175;-70
2021/12/05 18:31:22;;;;;;;0.17;0.17;;;4.90;99.90;;;;;;4991340;28;20210;-70
2021/12/05 18:33:52;;;;;;;0.20;0.20;;;4.80;99.90;;;;;;4991818;28;20175;-70
2021/12/05 18:36:19;;;;;;;0.73;0.67;;;4.80;99.90;;;;;;4988091;28;20178;-70
2021/12/05 18:38:47;;;;;;;0.57;0.57;;;4.80;99.90;;;;;;5011036;28;20178;-70